sensor_id;sensor_type;location;lat;lon;timestamp;pressure;altitude;pressure_sealevel;temperature;humidity
60170;BME280;46042;49.444;6.862;2024-03-08T00:00:10;62137.28;;;-147.77;100.00
60170;BME280;46042;49.444;6.862;2024-03-08T00:02:43;62137.28;;;-147.77;100.00
60170;BME280;46042;49.444;6.862;2024-03-08T00:05:11;62137.28;;;-147.77;100.00
60170;BME280;46042;49.444;6.862;2024-03-08T00:07:40;62137.28;;;-147.77;100.00
60170;BME280;46042;49.444;6.862;2024-03-08T00:10:11;62137.28;;;-147.77;100.00
60170;BME280;46042;49.444;6.862;2024-03-08T00:12:42;62137.28;;;-147.77;100.00
60170;BME280;46042;49.444;6.862;2024-03-08T00:15:16;62137.28;;;-147.77;100.00
60170;BME280;46042;49.444;6.862;2024-03-08T00:17:49;62137.28;;;-147.77;100.00
60170;BME280;46042;49.444;6.862;2024-03-08T00:20:16;62137.28;;;-147.77;100.00
60170;BME280;46042;49.444;6.862;2024-03-08T00:22:46;62137.28;;;-147.77;100.00
60170;BME280;46042;49.444;6.862;2024-03-08T00:25:13;62137.28;;;-147.77;100.00
60170;BME280;46042;49.444;6.862;2024-03-08T00:27:40;62137.28;;;-147.77;100.00
60170;BME280;46042;49.444;6.862;2024-03-08T00:30:08;62137.28;;;-147.77;100.00
60170;BME280;46042;49.444;6.862;2024-03-08T00:32:36;62137.28;;;-147.77;100.00
60170;BME280;46042;49.444;6.862;2024-03-08T00:35:04;62137.28;;;-147.77;100.00
60170;BME280;46042;49.444;6.862;2024-03-08T00:37:34;62137.28;;;-147.77;100.00
60170;BME280;46042;49.444;6.862;2024-03-08T00:40:01;62137.28;;;-147.77;100.00
60170;BME280;46042;49.444;6.862;2024-03-08T00:42:28;62137.28;;;-147.77;100.00
60170;BME280;46042;49.444;6.862;2024-03-08T00:44:55;62137.28;;;-147.77;100.00
60170;BME280;46042;49.444;6.862;2024-03-08T00:47:21;62137.28;;;-147.77;100.00
60170;BME280;46042;49.444;6.862;2024-03-08T00:49:48;62137.28;;;-147.77;100.00
60170;BME280;46042;49.444;6.862;2024-03-08T00:52:15;62137.28;;;-147.77;100.00
60170;BME280;46042;49.444;6.862;2024-03-08T00:54:42;62137.28;;;-147.77;100.00
60170;BME280;46042;49.444;6.862;2024-03-08T00:57:10;62137.28;;;-147.77;100.00
60170;BME280;46042;49.444;6.862;2024-03-08T00:59:38;62137.28;;;-147.77;100.00
60170;BME280;46042;49.444;6.862;2024-03-08T01:02:06;62137.28;;;-147.77;100.00
60170;BME280;46042;49.444;6.862;2024-03-08T01:04:32;62137.28;;;-147.77;100.00
60170;BME280;46042;49.444;6.862;2024-03-08T01:07:00;62137.28;;;-147.77;100.00
60170;BME280;46042;49.444;6.862;2024-03-08T01:09:27;62137.28;;;-147.77;100.00
60170;BME280;46042;49.444;6.862;2024-03-08T01:11:55;62137.28;;;-147.77;100.00
60170;BME280;46042;49.444;6.862;2024-03-08T01:14:24;62137.28;;;-147.77;100.00
60170;BME280;46042;49.444;6.862;2024-03-08T01:16:52;62137.28;;;-147.77;100.00
60170;BME280;46042;49.444;6.862;2024-03-08T01:19:19;62137.28;;;-147.77;100.00
60170;BME280;46042;49.444;6.862;2024-03-08T01:21:46;62137.28;;;-147.77;100.00
60170;BME280;46042;49.444;6.862;2024-03-08T01:24:13;62137.28;;;-147.77;100.00
60170;BME280;46042;49.444;6.862;2024-03-08T01:26:40;62137.28;;;-147.77;100.00
60170;BME280;46042;49.444;6.862;2024-03-08T01:29:09;62137.28;;;-147.77;100.00
60170;BME280;46042;49.444;6.862;2024-03-08T01:31:36;62137.28;;;-147.77;100.00
60170;BME280;46042;49.444;6.862;2024-03-08T01:34:08;62137.28;;;-147.77;100.00
60170;BME280;46042;49.444;6.862;2024-03-08T01:36:35;62137.28;;;-147.77;100.00
60170;BME280;46042;49.444;6.862;2024-03-08T01:39:04;62137.28;;;-147.77;100.00
60170;BME280;46042;49.444;6.862;2024-03-08T01:41:35;62137.28;;;-147.77;100.00
60170;BME280;46042;49.444;6.862;2024-03-08T01:44:06;62137.28;;;-147.77;100.00
60170;BME280;46042;49.444;6.862;2024-03-08T01:46:35;62137.28;;;-147.77;100.00
60170;BME280;46042;49.444;6.862;2024-03-08T01:49:02;62137.28;;;-147.77;100.00
60170;BME280;46042;49.444;6.862;2024-03-08T01:51:30;62137.28;;;-147.77;100.00
60170;BME280;46042;49.444;6.862;2024-03-08T01:53:58;62137.28;;;-147.77;100.00
60170;BME280;46042;49.444;6.862;2024-03-08T01:56:26;62137.28;;;-147.77;100.00
60170;BME280;46042;49.444;6.862;2024-03-08T01:58:54;62137.28;;;-147.77;100.00
60170;BME280;46042;49.444;6.862;2024-03-08T02:01:21;62137.28;;;-147.77;100.00
60170;BME280;46042;49.444;6.862;2024-03-08T02:03:49;62137.28;;;-147.77;100.00
60170;BME280;46042;49.444;6.862;2024-03-08T02:06:16;62137.28;;;-147.77;100.00
60170;BME280;46042;49.444;6.862;2024-03-08T02:08:44;62137.28;;;-147.77;100.00
60170;BME280;46042;49.444;6.862;2024-03-08T02:11:12;62137.28;;;-147.77;100.00
60170;BME280;46042;49.444;6.862;2024-03-08T02:13:39;62137.28;;;-147.77;100.00
60170;BME280;46042;49.444;6.862;2024-03-08T02:16:09;62137.28;;;-147.77;100.00
60170;BME280;46042;49.444;6.862;2024-03-08T02:18:36;62137.28;;;-147.77;100.00
60170;BME280;46042;49.444;6.862;2024-03-08T02:21:09;62137.28;;;-147.77;100.00
60170;BME280;46042;49.444;6.862;2024-03-08T02:23:37;62137.28;;;-147.77;100.00
60170;BME280;46042;49.444;6.862;2024-03-08T02:26:04;62137.28;;;-147.77;100.00
60170;BME280;46042;49.444;6.862;2024-03-08T02:28:31;62137.28;;;-147.77;100.00
60170;BME280;46042;49.444;6.862;2024-03-08T02:30:59;62137.28;;;-147.77;100.00
60170;BME280;46042;49.444;6.862;2024-03-08T02:33:27;62137.28;;;-147.77;100.00
60170;BME280;46042;49.444;6.862;2024-03-08T02:35:54;62137.28;;;-147.77;100.00
60170;BME280;46042;49.444;6.862;2024-03-08T02:38:23;62137.28;;;-147.77;100.00
60170;BME280;46042;49.444;6.862;2024-03-08T02:40:55;62137.28;;;-147.77;100.00
60170;BME280;46042;49.444;6.862;2024-03-08T02:43:22;62137.28;;;-147.77;100.00
60170;BME280;46042;49.444;6.862;2024-03-08T02:45:51;62137.28;;;-147.77;100.00
60170;BME280;46042;49.444;6.862;2024-03-08T02:48:20;62137.28;;;-147.77;100.00
60170;BME280;46042;49.444;6.862;2024-03-08T02:50:51;62137.28;;;-147.77;100.00
60170;BME280;46042;49.444;6.862;2024-03-08T02:53:18;62137.28;;;-147.77;100.00
60170;BME280;46042;49.444;6.862;2024-03-08T02:55:47;62137.28;;;-147.77;100.00
60170;BME280;46042;49.444;6.862;2024-03-08T02:58:13;62137.28;;;-147.77;100.00
60170;BME280;46042;49.444;6.862;2024-03-08T03:00:41;62137.28;;;-147.77;100.00
60170;BME280;46042;49.444;6.862;2024-03-08T03:03:14;62137.28;;;-147.77;100.00
60170;BME280;46042;49.444;6.862;2024-03-08T03:05:41;62137.28;;;-147.77;100.00
60170;BME280;46042;49.444;6.862;2024-03-08T03:08:14;62137.28;;;-147.77;100.00
60170;BME280;46042;49.444;6.862;2024-03-08T03:10:44;62137.28;;;-147.77;100.00
60170;BME280;46042;49.444;6.862;2024-03-08T03:13:11;62137.28;;;-147.77;100.00
60170;BME280;46042;49.444;6.862;2024-03-08T03:15:38;62137.28;;;-147.77;100.00
60170;BME280;46042;49.444;6.862;2024-03-08T03:18:08;62137.28;;;-147.77;100.00
60170;BME280;46042;49.444;6.862;2024-03-08T03:20:36;62137.28;;;-147.77;100.00
60170;BME280;46042;49.444;6.862;2024-03-08T03:23:11;62137.28;;;-147.77;100.00
60170;BME280;46042;49.444;6.862;2024-03-08T03:25:42;62137.28;;;-147.77;100.00
60170;BME280;46042;49.444;6.862;2024-03-08T03:28:09;62137.28;;;-147.77;100.00
60170;BME280;46042;49.444;6.862;2024-03-08T03:30:38;62137.28;;;-147.77;100.00
60170;BME280;46042;49.444;6.862;2024-03-08T03:33:06;62137.28;;;-147.77;100.00
60170;BME280;46042;49.444;6.862;2024-03-08T03:35:36;62137.28;;;-147.77;100.00
60170;BME280;46042;49.444;6.862;2024-03-08T03:38:04;62137.28;;;-147.77;100.00
60170;BME280;46042;49.444;6.862;2024-03-08T03:40:39;62137.28;;;-147.77;100.00
60170;BME280;46042;49.444;6.862;2024-03-08T03:43:11;62137.28;;;-147.77;100.00
60170;BME280;46042;49.444;6.862;2024-03-08T03:45:39;62137.28;;;-147.77;100.00
60170;BME280;46042;49.444;6.862;2024-03-08T03:48:08;62137.28;;;-147.77;100.00
60170;BME280;46042;49.444;6.862;2024-03-08T03:50:38;62137.28;;;-147.77;100.00
60170;BME280;46042;49.444;6.862;2024-03-08T03:53:06;62137.28;;;-147.77;100.00
60170;BME280;46042;49.444;6.862;2024-03-08T03:55:37;62137.28;;;-147.77;100.00
60170;BME280;46042;49.444;6.862;2024-03-08T03:58:07;62137.28;;;-147.77;100.00
60170;BME280;46042;49.444;6.862;2024-03-08T04:00:34;62137.28;;;-147.77;100.00
60170;BME280;46042;49.444;6.862;2024-03-08T04:03:01;62137.28;;;-147.77;100.00
60170;BME280;46042;49.444;6.862;2024-03-08T04:05:28;62137.28;;;-147.77;100.00
60170;BME280;46042;49.444;6.862;2024-03-08T04:07:55;62137.28;;;-147.77;100.00
60170;BME280;46042;49.444;6.862;2024-03-08T04:10:22;62137.28;;;-147.77;100.00
60170;BME280;46042;49.444;6.862;2024-03-08T04:12:49;62137.28;;;-147.77;100.00
60170;BME280;46042;49.444;6.862;2024-03-08T04:15:16;62137.28;;;-147.77;100.00
60170;BME280;46042;49.444;6.862;2024-03-08T04:17:42;62137.28;;;-147.77;100.00
60170;BME280;46042;49.444;6.862;2024-03-08T04:20:10;62137.28;;;-147.77;100.00
60170;BME280;46042;49.444;6.862;2024-03-08T04:22:37;62137.28;;;-147.77;100.00
60170;BME280;46042;49.444;6.862;2024-03-08T04:25:07;62137.28;;;-147.77;100.00
60170;BME280;46042;49.444;6.862;2024-03-08T04:27:34;62137.28;;;-147.77;100.00
60170;BME280;46042;49.444;6.862;2024-03-08T04:30:02;62137.28;;;-147.77;100.00
60170;BME280;46042;49.444;6.862;2024-03-08T04:32:29;62137.28;;;-147.77;100.00
60170;BME280;46042;49.444;6.862;2024-03-08T04:34:59;62137.28;;;-147.77;100.00
60170;BME280;46042;49.444;6.862;2024-03-08T04:37:27;62137.28;;;-147.77;100.00
60170;BME280;46042;49.444;6.862;2024-03-08T04:39:57;62137.28;;;-147.77;100.00
60170;BME280;46042;49.444;6.862;2024-03-08T04:42:28;62137.28;;;-147.77;100.00
60170;BME280;46042;49.444;6.862;2024-03-08T04:44:59;62137.28;;;-147.77;100.00
60170;BME280;46042;49.444;6.862;2024-03-08T04:47:26;62137.28;;;-147.77;100.00
60170;BME280;46042;49.444;6.862;2024-03-08T04:49:56;62137.28;;;-147.77;100.00
60170;BME280;46042;49.444;6.862;2024-03-08T04:52:23;62137.28;;;-147.77;100.00
60170;BME280;46042;49.444;6.862;2024-03-08T04:54:51;62137.28;;;-147.77;100.00
60170;BME280;46042;49.444;6.862;2024-03-08T04:57:18;62137.28;;;-147.77;100.00
60170;BME280;46042;49.444;6.862;2024-03-08T04:59:48;62137.28;;;-147.77;100.00
60170;BME280;46042;49.444;6.862;2024-03-08T05:02:15;62137.28;;;-147.77;100.00
60170;BME280;46042;49.444;6.862;2024-03-08T05:04:43;62137.28;;;-147.77;100.00
60170;BME280;46042;49.444;6.862;2024-03-08T05:07:10;62137.28;;;-147.77;100.00
60170;BME280;46042;49.444;6.862;2024-03-08T05:09:37;62137.28;;;-147.77;100.00
60170;BME280;46042;49.444;6.862;2024-03-08T05:12:04;62137.28;;;-147.77;100.00
60170;BME280;46042;49.444;6.862;2024-03-08T05:14:31;62137.28;;;-147.77;100.00
60170;BME280;46042;49.444;6.862;2024-03-08T05:16:58;62137.28;;;-147.77;100.00
60170;BME280;46042;49.444;6.862;2024-03-08T05:19:26;62137.28;;;-147.77;100.00
60170;BME280;46042;49.444;6.862;2024-03-08T05:21:56;62137.28;;;-147.77;100.00
60170;BME280;46042;49.444;6.862;2024-03-08T05:24:23;62137.28;;;-147.77;100.00
60170;BME280;46042;49.444;6.862;2024-03-08T05:26:50;62137.28;;;-147.77;100.00
60170;BME280;46042;49.444;6.862;2024-03-08T05:29:17;62137.28;;;-147.77;100.00
60170;BME280;46042;49.444;6.862;2024-03-08T05:31:48;62137.28;;;-147.77;100.00
60170;BME280;46042;49.444;6.862;2024-03-08T05:34:19;62137.28;;;-147.77;100.00
60170;BME280;46042;49.444;6.862;2024-03-08T05:36:49;62137.28;;;-147.77;100.00
60170;BME280;46042;49.444;6.862;2024-03-08T05:39:18;62137.28;;;-147.77;100.00
60170;BME280;46042;49.444;6.862;2024-03-08T05:41:47;62137.28;;;-147.77;100.00
60170;BME280;46042;49.444;6.862;2024-03-08T05:44:14;62137.28;;;-147.77;100.00
60170;BME280;46042;49.444;6.862;2024-03-08T05:46:43;62137.28;;;-147.77;100.00
60170;BME280;46042;49.444;6.862;2024-03-08T05:49:10;62137.28;;;-147.77;100.00
60170;BME280;46042;49.444;6.862;2024-03-08T05:51:39;62137.28;;;-147.77;100.00
60170;BME280;46042;49.444;6.862;2024-03-08T05:54:07;62137.28;;;-147.77;100.00
60170;BME280;46042;49.444;6.862;2024-03-08T05:56:42;62137.28;;;-147.77;100.00
60170;BME280;46042;49.444;6.862;2024-03-08T05:59:11;62137.28;;;-147.77;100.00
60170;BME280;46042;49.444;6.862;2024-03-08T06:01:38;62137.28;;;-147.77;100.00
60170;BME280;46042;49.444;6.862;2024-03-08T06:04:08;62137.28;;;-147.77;100.00
60170;BME280;46042;49.444;6.862;2024-03-08T06:06:38;62137.28;;;-147.77;100.00
60170;BME280;46042;49.444;6.862;2024-03-08T06:09:04;62137.28;;;-147.77;100.00
60170;BME280;46042;49.444;6.862;2024-03-08T06:11:40;62137.28;;;-147.77;100.00
60170;BME280;46042;49.444;6.862;2024-03-08T06:14:09;62137.28;;;-147.77;100.00
60170;BME280;46042;49.444;6.862;2024-03-08T06:16:36;62137.28;;;-147.77;100.00
60170;BME280;46042;49.444;6.862;2024-03-08T06:19:03;62137.28;;;-147.77;100.00
60170;BME280;46042;49.444;6.862;2024-03-08T06:21:30;62137.28;;;-147.77;100.00
60170;BME280;46042;49.444;6.862;2024-03-08T06:24:02;62137.28;;;-147.77;100.00
60170;BME280;46042;49.444;6.862;2024-03-08T06:26:29;62137.28;;;-147.77;100.00
60170;BME280;46042;49.444;6.862;2024-03-08T06:28:57;62137.28;;;-147.77;100.00
60170;BME280;46042;49.444;6.862;2024-03-08T06:31:25;62137.28;;;-147.77;100.00
60170;BME280;46042;49.444;6.862;2024-03-08T06:33:52;62137.28;;;-147.77;100.00
60170;BME280;46042;49.444;6.862;2024-03-08T06:36:23;62137.28;;;-147.77;100.00
60170;BME280;46042;49.444;6.862;2024-03-08T06:38:51;62137.28;;;-147.77;100.00
60170;BME280;46042;49.444;6.862;2024-03-08T06:41:18;62137.28;;;-147.77;100.00
60170;BME280;46042;49.444;6.862;2024-03-08T06:43:46;62137.28;;;-147.77;100.00
60170;BME280;46042;49.444;6.862;2024-03-08T06:46:16;62137.28;;;-147.77;100.00
60170;BME280;46042;49.444;6.862;2024-03-08T06:48:47;62137.28;;;-147.77;100.00
60170;BME280;46042;49.444;6.862;2024-03-08T06:51:14;62137.28;;;-147.77;100.00
60170;BME280;46042;49.444;6.862;2024-03-08T06:53:42;62137.28;;;-147.77;100.00
60170;BME280;46042;49.444;6.862;2024-03-08T06:56:09;62137.28;;;-147.77;100.00
60170;BME280;46042;49.444;6.862;2024-03-08T06:58:36;62137.28;;;-147.77;100.00
60170;BME280;46042;49.444;6.862;2024-03-08T07:01:04;62137.28;;;-147.77;100.00
60170;BME280;46042;49.444;6.862;2024-03-08T07:03:35;62137.28;;;-147.77;100.00
60170;BME280;46042;49.444;6.862;2024-03-08T07:06:02;62137.28;;;-147.77;100.00
60170;BME280;46042;49.444;6.862;2024-03-08T07:08:33;62137.28;;;-147.77;100.00
60170;BME280;46042;49.444;6.862;2024-03-08T07:11:00;62137.28;;;-147.77;100.00
60170;BME280;46042;49.444;6.862;2024-03-08T07:13:27;62137.28;;;-147.77;100.00
60170;BME280;46042;49.444;6.862;2024-03-08T07:15:57;62137.28;;;-147.77;100.00
60170;BME280;46042;49.444;6.862;2024-03-08T07:18:26;62137.28;;;-147.77;100.00
60170;BME280;46042;49.444;6.862;2024-03-08T07:20:54;62137.28;;;-147.77;100.00
60170;BME280;46042;49.444;6.862;2024-03-08T07:23:21;62137.28;;;-147.77;100.00
60170;BME280;46042;49.444;6.862;2024-03-08T07:26:06;62137.28;;;-147.77;100.00
60170;BME280;46042;49.444;6.862;2024-03-08T07:28:33;62137.28;;;-147.77;100.00
60170;BME280;46042;49.444;6.862;2024-03-08T07:31:00;62137.28;;;-147.77;100.00
60170;BME280;46042;49.444;6.862;2024-03-08T07:33:39;62137.28;;;-147.77;100.00
60170;BME280;46042;49.444;6.862;2024-03-08T07:36:10;62137.28;;;-147.77;100.00
60170;BME280;46042;49.444;6.862;2024-03-08T07:38:37;62137.28;;;-147.77;100.00
60170;BME280;46042;49.444;6.862;2024-03-08T07:41:04;62137.28;;;-147.77;100.00
60170;BME280;46042;49.444;6.862;2024-03-08T07:43:31;62137.28;;;-147.77;100.00
60170;BME280;46042;49.444;6.862;2024-03-08T07:45:59;62137.28;;;-147.77;100.00
60170;BME280;46042;49.444;6.862;2024-03-08T07:48:30;62137.28;;;-147.77;100.00
60170;BME280;46042;49.444;6.862;2024-03-08T07:50:57;62137.28;;;-147.77;100.00
60170;BME280;46042;49.444;6.862;2024-03-08T07:53:24;62137.28;;;-147.77;100.00
60170;BME280;46042;49.444;6.862;2024-03-08T07:55:51;62137.28;;;-147.77;100.00
60170;BME280;46042;49.444;6.862;2024-03-08T07:58:19;62137.28;;;-147.77;100.00
60170;BME280;46042;49.444;6.862;2024-03-08T08:00:46;62137.28;;;-147.77;100.00
60170;BME280;46042;49.444;6.862;2024-03-08T08:03:13;62137.28;;;-147.77;100.00
60170;BME280;46042;49.444;6.862;2024-03-08T08:05:40;62137.28;;;-147.77;100.00
60170;BME280;46042;49.444;6.862;2024-03-08T08:08:10;62137.28;;;-147.77;100.00
60170;BME280;46042;49.444;6.862;2024-03-08T08:10:38;62137.28;;;-147.77;100.00
60170;BME280;46042;49.444;6.862;2024-03-08T08:13:05;62137.28;;;-147.77;100.00
60170;BME280;46042;49.444;6.862;2024-03-08T08:15:32;62137.28;;;-147.77;100.00
60170;BME280;46042;49.444;6.862;2024-03-08T08:18:01;62137.28;;;-147.77;100.00
60170;BME280;46042;49.444;6.862;2024-03-08T08:20:33;62137.28;;;-147.77;100.00
60170;BME280;46042;49.444;6.862;2024-03-08T08:22:59;62137.28;;;-147.77;100.00
60170;BME280;46042;49.444;6.862;2024-03-08T08:25:26;62137.28;;;-147.77;100.00
60170;BME280;46042;49.444;6.862;2024-03-08T08:27:53;62137.28;;;-147.77;100.00
60170;BME280;46042;49.444;6.862;2024-03-08T08:30:20;62137.28;;;-147.77;100.00
60170;BME280;46042;49.444;6.862;2024-03-08T08:32:47;62137.28;;;-147.77;100.00
60170;BME280;46042;49.444;6.862;2024-03-08T08:35:16;62137.28;;;-147.77;100.00
60170;BME280;46042;49.444;6.862;2024-03-08T08:37:45;62137.28;;;-147.77;100.00
60170;BME280;46042;49.444;6.862;2024-03-08T08:40:13;62137.28;;;-147.77;100.00
60170;BME280;46042;49.444;6.862;2024-03-08T08:42:45;62137.28;;;-147.77;100.00
60170;BME280;46042;49.444;6.862;2024-03-08T08:45:15;62137.28;;;-147.77;100.00
60170;BME280;46042;49.444;6.862;2024-03-08T08:47:51;62137.28;;;-147.77;100.00
60170;BME280;46042;49.444;6.862;2024-03-08T08:50:21;62137.28;;;-147.77;100.00
60170;BME280;46042;49.444;6.862;2024-03-08T08:52:51;62137.28;;;-147.77;100.00
60170;BME280;46042;49.444;6.862;2024-03-08T08:55:19;62137.28;;;-147.77;100.00
60170;BME280;46042;49.444;6.862;2024-03-08T08:57:53;62137.28;;;-147.77;100.00
60170;BME280;46042;49.444;6.862;2024-03-08T09:00:20;62137.28;;;-147.77;100.00
60170;BME280;46042;49.444;6.862;2024-03-08T09:02:47;62137.28;;;-147.77;100.00
60170;BME280;46042;49.444;6.862;2024-03-08T09:05:18;62137.28;;;-147.77;100.00
60170;BME280;46042;49.444;6.862;2024-03-08T09:07:45;62137.28;;;-147.77;100.00
60170;BME280;46042;49.444;6.862;2024-03-08T09:10:12;62137.28;;;-147.77;100.00
60170;BME280;46042;49.444;6.862;2024-03-08T09:12:44;62137.28;;;-147.77;100.00
60170;BME280;46042;49.444;6.862;2024-03-08T09:15:11;62137.28;;;-147.77;100.00
60170;BME280;46042;49.444;6.862;2024-03-08T09:17:39;62137.28;;;-147.77;100.00
60170;BME280;46042;49.444;6.862;2024-03-08T09:20:07;62137.28;;;-147.77;100.00
60170;BME280;46042;49.444;6.862;2024-03-08T09:22:45;62137.28;;;-147.77;100.00
60170;BME280;46042;49.444;6.862;2024-03-08T09:25:13;62137.28;;;-147.77;100.00
60170;BME280;46042;49.444;6.862;2024-03-08T09:27:43;62137.28;;;-147.77;100.00
60170;BME280;46042;49.444;6.862;2024-03-08T09:30:10;62137.28;;;-147.77;100.00
60170;BME280;46042;49.444;6.862;2024-03-08T09:32:40;62137.28;;;-147.77;100.00
60170;BME280;46042;49.444;6.862;2024-03-08T09:35:10;62137.28;;;-147.77;100.00
60170;BME280;46042;49.444;6.862;2024-03-08T09:37:38;62137.28;;;-147.77;100.00
60170;BME280;46042;49.444;6.862;2024-03-08T09:40:05;62137.28;;;-147.77;100.00
60170;BME280;46042;49.444;6.862;2024-03-08T09:42:37;62137.28;;;-147.77;100.00
60170;BME280;46042;49.444;6.862;2024-03-08T09:45:10;62137.28;;;-147.77;100.00
60170;BME280;46042;49.444;6.862;2024-03-08T09:47:44;62137.28;;;-147.77;100.00
60170;BME280;46042;49.444;6.862;2024-03-08T09:50:12;62137.28;;;-147.77;100.00
60170;BME280;46042;49.444;6.862;2024-03-08T09:52:39;62137.28;;;-147.77;100.00
60170;BME280;46042;49.444;6.862;2024-03-08T09:55:07;62137.28;;;-147.77;100.00
60170;BME280;46042;49.444;6.862;2024-03-08T09:57:36;62137.28;;;-147.77;100.00
60170;BME280;46042;49.444;6.862;2024-03-08T10:00:06;62137.28;;;-147.77;100.00
60170;BME280;46042;49.444;6.862;2024-03-08T10:02:46;62137.28;;;-147.77;100.00
60170;BME280;46042;49.444;6.862;2024-03-08T10:05:14;62137.28;;;-147.77;100.00
60170;BME280;46042;49.444;6.862;2024-03-08T10:07:40;62137.28;;;-147.77;100.00
60170;BME280;46042;49.444;6.862;2024-03-08T10:10:11;62137.28;;;-147.77;100.00
60170;BME280;46042;49.444;6.862;2024-03-08T10:12:39;62137.28;;;-147.77;100.00
60170;BME280;46042;49.444;6.862;2024-03-08T10:15:07;62137.28;;;-147.77;100.00
60170;BME280;46042;49.444;6.862;2024-03-08T10:17:46;62137.28;;;-147.77;100.00
60170;BME280;46042;49.444;6.862;2024-03-08T10:20:17;62137.28;;;-147.77;100.00
60170;BME280;46042;49.444;6.862;2024-03-08T10:22:45;62137.28;;;-147.77;100.00
60170;BME280;46042;49.444;6.862;2024-03-08T10:25:32;62137.28;;;-147.77;100.00
60170;BME280;46042;49.444;6.862;2024-03-08T10:28:04;62137.28;;;-147.77;100.00
60170;BME280;46042;49.444;6.862;2024-03-08T10:30:33;62137.28;;;-147.77;100.00
60170;BME280;46042;49.444;6.862;2024-03-08T10:33:00;62137.28;;;-147.77;100.00
60170;BME280;46042;49.444;6.862;2024-03-08T10:35:28;62137.28;;;-147.77;100.00
60170;BME280;46042;49.444;6.862;2024-03-08T10:37:56;62137.28;;;-147.77;100.00
60170;BME280;46042;49.444;6.862;2024-03-08T10:40:28;62137.28;;;-147.77;100.00
60170;BME280;46042;49.444;6.862;2024-03-08T10:42:57;62137.28;;;-147.77;100.00
60170;BME280;46042;49.444;6.862;2024-03-08T10:50:50;62137.28;;;-147.77;100.00
60170;BME280;46042;49.444;6.862;2024-03-08T10:53:19;62137.28;;;-147.77;100.00
60170;BME280;46042;49.444;6.862;2024-03-08T10:55:50;62137.28;;;-147.77;100.00
60170;BME280;46042;49.444;6.862;2024-03-08T10:58:22;62137.28;;;-147.77;100.00
60170;BME280;46042;49.444;6.862;2024-03-08T11:00:49;62137.28;;;-147.77;100.00
60170;BME280;46042;49.444;6.862;2024-03-08T11:06:16;62137.28;;;-147.77;100.00
60170;BME280;46042;49.444;6.862;2024-03-08T11:08:46;62137.28;;;-147.77;100.00
60170;BME280;46042;49.444;6.862;2024-03-08T11:11:31;62137.28;;;-147.77;100.00
60170;BME280;46042;49.444;6.862;2024-03-08T11:14:01;62137.28;;;-147.77;100.00
60170;BME280;46042;49.444;6.862;2024-03-08T11:19:06;62137.28;;;-147.77;100.00
60170;BME280;46042;49.444;6.862;2024-03-08T11:21:59;62137.28;;;-147.77;100.00
60170;BME280;46042;49.444;6.862;2024-03-08T11:24:26;62137.28;;;-147.77;100.00
60170;BME280;46042;49.444;6.862;2024-03-08T11:26:58;98696.41;;;4.11;100.00
60170;BME280;46042;49.444;6.862;2024-03-08T11:32:16;97945.06;;;12.87;51.73
60170;BME280;46042;49.444;6.862;2024-03-08T11:34:49;97948.53;;;13.38;50.92
60170;BME280;46042;49.444;6.862;2024-03-08T11:37:21;97953.56;;;13.01;51.19
60170;BME280;46042;49.444;6.862;2024-03-08T11:39:54;97950.94;;;13.01;51.58
60170;BME280;46042;49.444;6.862;2024-03-08T11:42:31;97949.00;;;12.41;50.01
60170;BME280;46042;49.444;6.862;2024-03-08T11:44:57;97941.88;;;12.93;53.76
60170;BME280;46042;49.444;6.862;2024-03-08T11:47:26;97938.59;;;13.11;49.98
60170;BME280;46042;49.444;6.862;2024-03-08T11:49:53;97934.72;;;13.35;52.05
60170;BME280;46042;49.444;6.862;2024-03-08T11:52:24;97919.63;;;14.06;48.83
60170;BME280;46042;49.444;6.862;2024-03-08T11:54:53;97904.16;;;13.52;49.65
60170;BME280;46042;49.444;6.862;2024-03-08T11:57:25;97901.81;;;13.78;52.62
60170;BME280;46042;49.444;6.862;2024-03-08T11:59:56;97901.81;;;13.78;52.62
60170;BME280;46042;49.444;6.862;2024-03-08T12:02:35;62137.28;;;-147.77;100.00
60170;BME280;46042;49.444;6.862;2024-03-08T12:05:07;62137.28;;;-147.77;100.00
60170;BME280;46042;49.444;6.862;2024-03-08T12:07:36;62137.28;;;-147.77;100.00
60170;BME280;46042;49.444;6.862;2024-03-08T12:10:21;62137.28;;;-147.77;100.00
60170;BME280;46042;49.444;6.862;2024-03-08T12:12:57;97894.00;;;12.25;53.12
60170;BME280;46042;49.444;6.862;2024-03-08T12:15:30;97880.44;;;13.31;50.05
60170;BME280;46042;49.444;6.862;2024-03-08T12:18:00;97876.28;;;13.28;49.58
60170;BME280;46042;49.444;6.862;2024-03-08T12:20:30;97864.50;;;12.82;50.53
60170;BME280;46042;49.444;6.862;2024-03-08T12:22:58;97865.72;;;13.68;49.09
60170;BME280;46042;49.444;6.862;2024-03-08T12:25:31;97864.16;;;13.26;47.93
60170;BME280;46042;49.444;6.862;2024-03-08T12:28:09;97852.50;;;13.68;100.00
60170;BME280;46042;49.444;6.862;2024-03-08T12:30:51;97852.50;;;13.68;50.09
60170;BME280;46042;49.444;6.862;2024-03-08T12:33:24;97836.81;;;12.86;48.54
60170;BME280;46042;49.444;6.862;2024-03-08T12:35:54;97837.84;;;13.24;54.35
60170;BME280;46042;49.444;6.862;2024-03-08T12:38:28;62137.28;;;-147.77;100.00
60170;BME280;46042;49.444;6.862;2024-03-08T12:40:58;97834.00;;;13.48;50.05
60170;BME280;46042;49.444;6.862;2024-03-08T12:43:26;97827.97;;;13.36;47.66
60170;BME280;46042;49.444;6.862;2024-03-08T12:45:59;97814.03;;;13.24;48.74
60170;BME280;46042;49.444;6.862;2024-03-08T12:48:26;97813.63;;;13.38;52.78
60170;BME280;46042;49.444;6.862;2024-03-08T12:50:53;97799.25;;;13.80;50.88
60170;BME280;46042;49.444;6.862;2024-03-08T12:53:22;97807.22;;;14.56;48.53
60170;BME280;46042;49.444;6.862;2024-03-08T12:55:50;97807.13;;;13.53;46.18